createdAt,value
2018-03-01T00:01:35.998Z,42.59
2018-03-01T00:04:03.556Z,42.23
2018-03-01T00:06:31.112Z,43.44
2018-03-01T00:08:59.683Z,43.47
2018-03-01T00:11:27.239Z,44.17
2018-03-01T00:13:54.837Z,44.34
2018-03-01T00:16:22.428Z,44.06
2018-03-01T00:18:49.992Z,43.74
2018-03-01T00:21:17.866Z,43.61
2018-03-01T00:23:45.469Z,43.93
2018-03-01T00:26:13.307Z,43.62
2018-03-01T00:28:41.483Z,44.07
2018-03-01T00:31:09.068Z,44.48
2018-03-01T00:33:37.406Z,43.89
2018-03-01T00:36:05.558Z,44.16
2018-03-01T00:38:33.143Z,45.42
2018-03-01T00:41:00.754Z,45.33
2018-03-01T00:43:28.312Z,45.12
2018-03-01T00:45:55.859Z,43.82
2018-03-01T00:48:23.465Z,45.84
2018-03-01T00:50:51.028Z,47.26
2018-03-01T00:53:18.628Z,46.73
2018-03-01T00:55:46.179Z,46.80
2018-03-01T00:58:13.780Z,45.79
2018-03-01T01:00:41.757Z,47.79
2018-03-01T01:03:09.347Z,47.20
2018-03-01T01:05:36.946Z,47.59
2018-03-01T01:08:04.513Z,47.18
2018-03-01T01:10:32.084Z,48.29
2018-03-01T01:12:59.678Z,47.91
2018-03-01T01:15:27.244Z,48.07
2018-03-01T01:17:54.845Z,49.51
2018-03-01T01:20:23.922Z,48.42
2018-03-01T01:22:51.544Z,48.20
2018-03-01T01:25:19.134Z,49.42
2018-03-01T01:27:46.687Z,50.41
2018-03-01T01:30:14.280Z,50.13
2018-03-01T01:32:41.878Z,49.95
2018-03-01T01:35:09.446Z,50.12
2018-03-01T01:37:37.927Z,51.94
2018-03-01T01:40:05.523Z,51.67
2018-03-01T01:42:33.123Z,50.81
2018-03-01T01:45:00.694Z,50.88
2018-03-01T01:47:28.256Z,49.30
2018-03-01T01:49:55.869Z,48.05
2018-03-01T01:52:23.433Z,48.67
2018-03-01T01:54:51.030Z,48.85
2018-03-01T01:57:18.612Z,48.09
2018-03-01T01:59:46.159Z,47.38
2018-03-01T02:02:13.769Z,46.13
2018-03-01T02:04:42.031Z,47.29
2018-03-01T02:07:09.625Z,47.01
2018-03-01T02:09:38.152Z,48.88
2018-03-01T02:12:05.708Z,49.69
2018-03-01T02:14:33.315Z,51.09
2018-03-01T02:17:00.924Z,51.90
2018-03-01T02:19:28.537Z,50.95
2018-03-01T02:21:56.154Z,48.75
2018-03-01T02:24:23.957Z,49.81
2018-03-01T02:26:51.565Z,49.15
2018-03-01T02:29:19.115Z,50.85
2018-03-01T02:31:46.715Z,51.32
2018-03-01T02:34:14.324Z,50.59
2018-03-01T02:36:41.931Z,51.82
2018-03-01T02:39:09.636Z,51.32
2018-03-01T02:41:37.249Z,52.07
2018-03-01T02:44:05.785Z,52.93
2018-03-01T02:46:33.331Z,52.09
2018-03-01T02:49:00.920Z,52.31
2018-03-01T02:51:28.535Z,51.07
2018-03-01T02:53:56.127Z,51.31
2018-03-01T02:56:23.740Z,51.04
2018-03-01T02:58:51.372Z,53.09
2018-03-01T03:01:18.967Z,51.18
2018-03-01T03:03:46.522Z,49.53
2018-03-01T03:06:14.448Z,51.82
2018-03-01T03:08:42.049Z,52.98
2018-03-01T03:11:09.613Z,52.66
2018-03-01T03:13:37.211Z,51.89
2018-03-01T03:16:04.763Z,51.26
2018-03-01T03:18:32.370Z,52.27
2018-03-01T03:21:00.418Z,52.66
2018-03-01T03:23:27.980Z,51.37
2018-03-01T03:25:55.522Z,54.11
2018-03-01T03:28:23.143Z,53.18
2018-03-01T03:30:51.165Z,52.40
2018-03-01T03:33:18.741Z,53.59
2018-03-01T03:35:47.002Z,53.35
2018-03-01T03:38:14.597Z,54.51
2018-03-01T03:40:42.833Z,56.29
2018-03-01T03:43:10.387Z,56.27
2018-03-01T03:45:38.363Z,56.93
2018-03-01T03:48:05.972Z,54.94
2018-03-01T03:50:33.589Z,54.80
2018-03-01T03:53:01.139Z,56.21
2018-03-01T03:55:28.711Z,54.72
2018-03-01T03:57:56.322Z,54.78
2018-03-01T04:00:23.875Z,54.43
2018-03-01T04:02:51.440Z,53.42
2018-03-01T04:05:19.039Z,52.78
2018-03-01T04:07:47.314Z,53.44
2018-03-01T04:10:14.911Z,54.28
2018-03-01T04:12:42.529Z,53.81
2018-03-01T04:15:10.473Z,57.13
2018-03-01T04:17:38.041Z,56.12
2018-03-01T04:20:06.123Z,54.24
2018-03-01T04:22:33.677Z,52.11
2018-03-01T04:25:01.282Z,51.73
2018-03-01T04:27:28.843Z,51.68
2018-03-01T04:29:56.440Z,51.84
2018-03-01T04:32:24.001Z,50.15
2018-03-01T04:34:51.625Z,49.72
2018-03-01T04:37:19.293Z,47.44
2018-03-01T04:39:46.858Z,47.77
2018-03-01T04:42:14.455Z,46.10
2018-03-01T04:44:42.047Z,46.05
2018-03-01T04:47:10.001Z,46.37
2018-03-01T04:49:37.591Z,45.28
2018-03-01T04:52:05.164Z,45.19
2018-03-01T04:54:32.977Z,44.92
2018-03-01T04:57:00.530Z,45.18
2018-03-01T04:59:28.132Z,44.75
2018-03-01T05:01:55.723Z,45.87
2018-03-01T05:04:23.285Z,49.33
2018-03-01T05:06:51.180Z,49.35
2018-03-01T05:09:19.223Z,51.15
2018-03-01T05:11:46.819Z,45.25
2018-03-01T05:14:15.250Z,49.82
2018-03-01T05:16:43.464Z,46.15
2018-03-01T05:19:11.052Z,49.03
2018-03-01T05:21:38.640Z,50.81
2018-03-01T05:24:06.196Z,47.91
2018-03-01T05:26:33.788Z,47.54
2018-03-01T05:29:01.340Z,47.31
2018-03-01T05:31:28.945Z,46.63
2018-03-01T05:33:56.513Z,46.05
2018-03-01T05:36:24.133Z,45.88
2018-03-01T05:38:52.109Z,44.32
2018-03-01T05:41:19.660Z,44.08
2018-03-01T05:43:47.256Z,45.08
2018-03-01T05:46:14.903Z,44.15
2018-03-01T05:48:42.532Z,43.75
2018-03-01T05:51:10.904Z,43.55
2018-03-01T05:53:38.491Z,43.02
2018-03-01T05:56:06.043Z,42.13
2018-03-01T05:58:33.648Z,41.77
2018-03-01T06:01:01.219Z,42.78
2018-03-01T06:03:28.821Z,43.23
2018-03-01T06:05:56.385Z,43.67
2018-03-01T06:08:24.598Z,42.86
2018-03-01T06:10:52.169Z,43.32
2018-03-01T06:13:19.729Z,43.06
2018-03-01T06:15:47.337Z,42.12
2018-03-01T06:18:14.891Z,41.48
2018-03-01T06:20:42.830Z,42.38
2018-03-01T06:23:10.412Z,41.26
2018-03-01T06:25:38.381Z,39.49
2018-03-01T06:28:05.996Z,40.15
2018-03-01T06:30:33.795Z,39.87
2018-03-01T06:33:01.682Z,39.62
2018-03-01T06:35:30.364Z,39.99
2018-03-01T06:37:59.427Z,39.04
2018-03-01T06:40:27.029Z,39.65
2018-03-01T06:42:55.027Z,40.18
2018-03-01T06:45:24.014Z,40.10
2018-03-01T06:47:52.566Z,40.63
2018-03-01T06:50:20.324Z,39.80
2018-03-01T06:52:48.093Z,40.43
2018-03-01T06:55:15.653Z,40.04
2018-03-01T06:57:43.688Z,40.16
2018-03-01T07:00:11.559Z,39.35
2018-03-01T07:02:39.460Z,38.79
2018-03-01T07:05:07.015Z,38.19
2018-03-01T07:07:34.620Z,39.28
2018-03-01T07:10:02.609Z,38.73
2018-03-01T07:12:30.498Z,38.78
2018-03-01T07:14:58.551Z,39.05
2018-03-01T07:17:26.098Z,39.36
2018-03-01T07:19:54.366Z,39.37
2018-03-01T07:22:22.338Z,38.83
2018-03-01T07:24:49.891Z,38.30
2018-03-01T07:27:17.993Z,38.40
2018-03-01T07:29:45.563Z,38.22
2018-03-01T07:32:13.536Z,38.25
2018-03-01T07:34:42.422Z,37.45
2018-03-01T07:37:09.986Z,38.59
2018-03-01T07:39:38.456Z,38.16
2018-03-01T07:42:06.052Z,38.87
2018-03-01T07:44:33.619Z,39.14
2018-03-01T07:47:02.245Z,39.56
2018-03-01T07:49:30.882Z,38.75
2018-03-01T07:51:59.570Z,38.63
2018-03-01T07:54:27.807Z,39.61
2018-03-01T07:56:55.409Z,38.34
2018-03-01T07:59:23.424Z,38.53
2018-03-01T08:01:51.307Z,38.17
2018-03-01T08:04:18.961Z,39.48
2018-03-01T08:06:46.543Z,39.12
2018-03-01T08:09:14.141Z,38.89
2018-03-01T08:11:41.696Z,37.08
2018-03-01T08:14:09.817Z,38.49
2018-03-01T08:16:37.664Z,37.56
2018-03-01T08:19:05.327Z,36.20
2018-03-01T08:21:33.390Z,35.28
2018-03-01T08:24:01.875Z,34.64
2018-03-01T08:26:29.881Z,34.24
2018-03-01T08:28:58.530Z,33.58
2018-03-01T08:31:26.100Z,33.14
2018-03-01T08:33:54.387Z,32.69
2018-03-01T08:36:22.760Z,32.53
2018-03-01T08:38:50.332Z,31.52
2018-03-01T08:41:17.945Z,32.03
2018-03-01T08:43:45.547Z,31.83
2018-03-01T08:46:13.516Z,32.22
2018-03-01T08:48:41.596Z,31.88
2018-03-01T08:51:11.246Z,31.75
2018-03-01T08:53:38.824Z,31.59
2018-03-01T08:56:06.691Z,31.57
2018-03-01T08:58:34.674Z,30.60
2018-03-01T09:01:02.711Z,30.03
2018-03-01T09:03:30.320Z,29.24
2018-03-01T09:05:58.270Z,30.77
2018-03-01T09:08:26.073Z,32.26
2018-03-01T09:10:53.872Z,32.71
2018-03-01T09:13:21.436Z,33.87
2018-03-01T09:15:49.099Z,34.64
2018-03-01T09:18:16.708Z,37.94
2018-03-01T09:20:44.650Z,34.51
2018-03-01T09:23:14.236Z,35.47
2018-03-01T09:25:41.997Z,35.47
2018-03-01T09:28:09.948Z,33.17
2018-03-01T09:30:38.387Z,33.74
2018-03-01T09:33:05.998Z,34.69
2018-03-01T09:35:33.567Z,35.56
2018-03-01T09:38:02.546Z,36.26
2018-03-01T09:40:30.944Z,36.85
2018-03-01T09:42:58.525Z,36.88
2018-03-01T09:45:26.257Z,35.47
2018-03-01T09:47:53.815Z,35.01
2018-03-01T09:50:21.896Z,34.07
2018-03-01T09:52:49.511Z,33.80
2018-03-01T09:55:18.027Z,33.05
2018-03-01T09:57:46.087Z,32.70
2018-03-01T10:00:15.031Z,32.37
2018-03-01T10:02:42.690Z,32.45
2018-03-01T10:05:10.372Z,32.30
2018-03-01T10:07:40.249Z,32.31
2018-03-01T10:10:08.454Z,32.21
2018-03-01T10:12:36.598Z,31.87
2018-03-01T10:15:04.375Z,31.92
2018-03-01T10:17:32.337Z,32.18
2018-03-01T10:19:59.898Z,32.03
2018-03-01T10:22:27.998Z,32.36
2018-03-01T10:24:56.215Z,32.38
2018-03-01T10:27:26.869Z,32.05
2018-03-01T10:29:54.636Z,31.92
2018-03-01T10:32:22.747Z,32.07
2018-03-01T10:34:50.470Z,32.41
2018-03-01T10:37:20.115Z,32.58
2018-03-01T10:39:48.269Z,33.35
2018-03-01T10:42:17.446Z,30.06
2018-03-01T10:44:45.289Z,30.91
2018-03-01T10:47:12.946Z,30.31
2018-03-01T10:49:40.887Z,30.51
2018-03-01T10:52:09.100Z,31.60
2018-03-01T10:54:37.176Z,30.62
2018-03-01T10:57:05.878Z,30.90
2018-03-01T10:59:35.146Z,31.20
2018-03-01T11:02:02.805Z,30.66
2018-03-01T11:04:32.546Z,30.69
2018-03-01T11:07:00.444Z,31.11
2018-03-01T11:09:28.362Z,31.97
2018-03-01T11:11:55.971Z,32.85
2018-03-01T11:14:24.462Z,32.37
2018-03-01T11:16:52.894Z,32.18
2018-03-01T11:19:22.173Z,32.22
2018-03-01T11:21:50.730Z,33.35
2018-03-01T11:24:19.278Z,32.83
2018-03-01T11:26:50.384Z,33.29
2018-03-01T11:29:18.037Z,32.94
2018-03-01T11:31:45.793Z,30.67
2018-03-01T11:34:14.627Z,31.61
2018-03-01T11:36:43.326Z,32.15
2018-03-01T11:39:10.969Z,32.29
2018-03-01T11:41:39.133Z,32.91
2018-03-01T11:44:06.904Z,30.99
2018-03-01T11:46:35.567Z,30.22
2018-03-01T11:49:03.542Z,31.62
2018-03-01T11:51:31.510Z,32.76
2018-03-01T11:53:59.844Z,33.24
2018-03-01T11:56:30.037Z,31.44
2018-03-01T11:58:57.864Z,30.12
2018-03-01T12:01:26.576Z,30.15
2018-03-01T12:03:55.505Z,31.49
2018-03-01T12:06:23.827Z,34.03
2018-03-01T12:08:51.397Z,32.43
2018-03-01T12:11:19.378Z,34.13
2018-03-01T12:13:47.433Z,34.52
2018-03-01T12:16:15.029Z,34.34
2018-03-01T12:18:43.279Z,33.61
2018-03-01T12:21:11.794Z,33.73
2018-03-01T12:23:39.722Z,33.45
2018-03-01T12:26:07.342Z,33.74
2018-03-01T12:28:36.076Z,34.19
2018-03-01T12:31:03.685Z,34.84
2018-03-01T12:33:31.241Z,35.50
2018-03-01T12:35:58.923Z,35.62
2018-03-01T12:38:27.217Z,35.15
2018-03-01T12:40:54.817Z,35.15
2018-03-01T12:43:22.749Z,35.37
2018-03-01T12:45:50.456Z,34.75
2018-03-01T12:48:18.107Z,34.94
2018-03-01T12:50:45.997Z,34.92
2018-03-01T12:53:14.053Z,34.25
2018-03-01T12:55:41.641Z,33.68
2018-03-01T12:58:09.327Z,34.05
2018-03-01T13:00:37.227Z,33.66
2018-03-01T13:03:04.861Z,33.45
2018-03-01T13:05:32.497Z,34.16
2018-03-01T13:08:00.340Z,33.71
2018-03-01T13:10:33.986Z,33.56
2018-03-01T13:13:02.420Z,33.51
2018-03-01T13:15:29.998Z,32.98
2018-03-01T13:17:59.029Z,32.74
2018-03-01T13:20:26.858Z,33.23
2018-03-01T13:22:55.272Z,32.78
2018-03-01T13:25:23.651Z,32.44
2018-03-01T13:27:52.705Z,32.53
2018-03-01T13:30:20.301Z,33.28
2018-03-01T13:35:53.222Z,34.16
2018-03-01T13:38:21.774Z,34.80
2018-03-01T13:40:49.952Z,34.50
2018-03-01T13:43:22.382Z,34.96
2018-03-01T13:45:49.957Z,34.67
2018-03-01T13:48:17.735Z,34.24
2018-03-01T13:50:45.299Z,33.47
2018-03-01T13:53:12.978Z,35.07
2018-03-01T13:55:40.572Z,35.05
2018-03-01T13:58:08.212Z,34.78
2018-03-01T14:00:35.840Z,35.23
2018-03-01T14:03:03.463Z,35.07
2018-03-01T14:05:31.080Z,35.22
2018-03-01T14:07:58.696Z,35.28
2018-03-01T14:10:26.311Z,35.32
2018-03-01T14:16:02.224Z,35.66
2018-03-01T14:21:36.909Z,35.85
2018-03-01T14:27:19.440Z,36.20
2018-03-01T14:29:47.008Z,36.19
2018-03-01T14:32:14.580Z,36.03
2018-03-01T14:34:42.181Z,36.07
2018-03-01T14:37:10.689Z,36.25
2018-03-01T14:39:38.803Z,36.49
2018-03-01T14:42:06.404Z,36.83
2018-03-01T14:44:34.907Z,36.80
2018-03-01T14:47:02.453Z,36.81
2018-03-01T14:49:30.036Z,37.20
2018-03-01T14:51:57.592Z,37.22
2018-03-01T14:54:25.204Z,37.60
2018-03-01T14:56:52.804Z,37.60
2018-03-01T14:59:20.357Z,37.63
2018-03-01T15:01:47.947Z,37.70
2018-03-01T15:04:15.478Z,37.74
2018-03-01T15:06:43.076Z,37.54
2018-03-01T15:09:10.625Z,37.26
2018-03-01T15:11:38.220Z,37.03
2018-03-01T15:14:05.764Z,37.71
2018-03-01T15:16:33.365Z,37.97
2018-03-01T15:19:00.974Z,37.85
2018-03-01T15:21:28.608Z,37.83
2018-03-01T15:23:56.195Z,40.27
2018-03-01T15:26:23.764Z,41.74
2018-03-01T15:28:51.630Z,41.08
2018-03-01T15:31:20.118Z,40.11
2018-03-01T15:33:49.455Z,40.04
2018-03-01T15:36:17.000Z,39.58
2018-03-01T15:38:44.589Z,39.54
2018-03-01T15:41:12.951Z,39.32
2018-03-01T15:43:40.535Z,39.12
2018-03-01T15:46:08.068Z,39.13
2018-03-01T15:48:36.604Z,39.07
2018-03-01T15:51:04.146Z,38.70
2018-03-01T15:53:31.749Z,38.36
2018-03-01T15:55:59.293Z,39.83
2018-03-01T15:58:26.846Z,39.81
2018-03-01T16:00:54.881Z,39.50
2018-03-01T16:03:22.529Z,39.39
2018-03-01T16:05:50.964Z,38.87
2018-03-01T16:08:18.676Z,40.89
2018-03-01T16:10:46.874Z,40.71
2018-03-01T16:13:14.598Z,40.66
2018-03-01T16:15:42.304Z,40.59
2018-03-01T16:18:15.207Z,40.27
2018-03-01T16:20:43.117Z,39.53
2018-03-01T16:23:10.665Z,42.20
2018-03-01T16:25:39.476Z,43.05
2018-03-01T16:28:07.063Z,42.69
2018-03-01T16:30:34.652Z,43.49
2018-03-01T16:33:02.208Z,42.67
2018-03-01T16:35:29.811Z,42.34
2018-03-01T16:37:57.350Z,43.99
2018-03-01T16:40:24.929Z,44.12
2018-03-01T16:42:52.690Z,42.95
2018-03-01T16:45:20.688Z,42.09
2018-03-01T16:47:48.279Z,41.66
2018-03-01T16:50:15.817Z,42.34
2018-03-01T16:52:43.359Z,44.30
2018-03-01T16:55:11.756Z,44.29
2018-03-01T16:57:40.142Z,45.08
2018-03-01T17:00:09.332Z,46.46
2018-03-01T17:02:37.091Z,46.93
2018-03-01T17:05:06.117Z,47.28
2018-03-01T17:07:34.075Z,47.16
2018-03-01T17:10:03.107Z,48.77
2018-03-01T17:12:31.054Z,50.22
2018-03-01T17:14:58.643Z,49.65
2018-03-01T17:17:26.777Z,48.81
2018-03-01T17:19:55.082Z,47.38
2018-03-01T17:22:22.676Z,48.05
2018-03-01T17:24:50.492Z,48.27
2018-03-01T17:27:18.047Z,47.63
2018-03-01T17:29:45.584Z,46.31
2018-03-01T17:32:13.185Z,45.38
2018-03-01T17:34:41.746Z,44.85
2018-03-01T17:37:09.683Z,45.83
2018-03-01T17:39:38.248Z,46.22
2018-03-01T17:42:06.882Z,45.37
2018-03-01T17:44:34.432Z,44.74
2018-03-01T17:47:02.105Z,43.99
2018-03-01T17:49:29.702Z,42.88
2018-03-01T17:51:57.385Z,44.38
2018-03-01T17:54:25.831Z,44.60
2018-03-01T17:56:54.256Z,43.97
2018-03-01T17:59:22.120Z,43.35
2018-03-01T18:01:50.022Z,44.25
2018-03-01T18:04:17.751Z,45.56
2018-03-01T18:06:45.308Z,45.17
2018-03-01T18:09:14.508Z,46.54
2018-03-01T18:11:42.055Z,45.67
2018-03-01T18:14:09.643Z,46.04
2018-03-01T18:16:37.193Z,46.09
2018-03-01T18:19:04.942Z,46.06
2018-03-01T18:21:32.490Z,46.90
2018-03-01T18:24:00.089Z,47.91
2018-03-01T18:26:27.650Z,47.54
2018-03-01T18:28:56.029Z,46.88
2018-03-01T18:31:23.627Z,45.98
2018-03-01T18:33:51.173Z,45.35
2018-03-01T18:36:19.106Z,45.47
2018-03-01T18:38:47.065Z,45.88
2018-03-01T18:41:14.615Z,45.27
2018-03-01T18:43:42.203Z,44.85
2018-03-01T18:46:09.790Z,45.05
2018-03-01T18:48:40.167Z,45.11
2018-03-01T18:51:07.774Z,46.09
2018-03-01T18:53:35.581Z,46.09
2018-03-01T18:56:03.154Z,46.17
2018-03-01T18:58:30.756Z,47.71
2018-03-01T19:00:58.310Z,49.50
2018-03-01T19:03:26.484Z,50.78
2018-03-01T19:05:55.790Z,49.72
2018-03-01T19:08:23.333Z,48.60
2018-03-01T19:10:51.694Z,47.48
2018-03-01T19:13:19.815Z,46.29
2018-03-01T19:15:47.355Z,45.20
2018-03-01T19:18:14.894Z,47.38
2018-03-01T19:20:42.723Z,49.08
2018-03-01T19:23:11.084Z,47.58
2018-03-01T19:25:38.683Z,48.37
2018-03-01T19:28:06.553Z,49.88
2018-03-01T19:30:34.533Z,51.82
2018-03-01T19:33:02.141Z,52.67
2018-03-01T19:35:30.580Z,53.14
2018-03-01T19:37:58.244Z,52.97
2018-03-01T19:40:25.856Z,51.96
2018-03-01T19:42:53.479Z,49.95
2018-03-01T19:45:21.047Z,49.02
2018-03-01T19:47:48.646Z,49.57
2018-03-01T19:50:19.284Z,50.03
2018-03-01T19:52:48.070Z,49.06
2018-03-01T19:55:15.660Z,48.59
2018-03-01T19:57:43.200Z,46.79
2018-03-01T20:00:10.805Z,46.41
2018-03-01T20:02:38.365Z,47.61
2018-03-01T20:05:06.323Z,49.20
2018-03-01T20:07:34.160Z,49.67
2018-03-01T20:10:01.711Z,48.13
2018-03-01T20:12:30.267Z,49.68
2018-03-01T20:14:57.830Z,49.27
2018-03-01T20:17:26.260Z,49.25
2018-03-01T20:19:54.603Z,50.03
2018-03-01T20:22:22.623Z,51.01
2018-03-01T20:24:50.221Z,51.02
2018-03-01T20:27:18.124Z,49.56
2018-03-01T20:29:46.101Z,50.76
2018-03-01T20:32:13.690Z,50.40
2018-03-01T20:34:41.248Z,50.78
2018-03-01T20:37:08.835Z,49.92
2018-03-01T20:39:36.375Z,49.48
2018-03-01T20:42:05.705Z,47.95
2018-03-01T20:44:33.490Z,47.17
2018-03-01T20:47:01.100Z,47.60
2018-03-01T20:49:28.656Z,48.41
2018-03-01T20:51:56.208Z,47.91
2018-03-01T20:54:23.805Z,46.98
2018-03-01T20:56:51.355Z,46.58
2018-03-01T20:59:18.953Z,49.01
2018-03-01T21:01:46.896Z,51.07
2018-03-01T21:04:14.459Z,51.33
2018-03-01T21:06:42.044Z,50.76
2018-03-01T21:09:09.600Z,52.26
2018-03-01T21:11:37.565Z,52.41
2018-03-01T21:14:05.151Z,52.71
2018-03-01T21:16:32.772Z,52.33
2018-03-01T21:19:00.652Z,51.83
2018-03-01T21:21:28.292Z,52.78
2018-03-01T21:23:55.952Z,52.27
2018-03-01T21:26:23.504Z,50.25
2018-03-01T21:28:51.122Z,49.93
2018-03-01T21:31:19.347Z,48.83
2018-03-01T21:33:46.946Z,49.26
2018-03-01T21:36:14.686Z,50.00
2018-03-01T21:38:42.300Z,50.09
2018-03-01T21:41:10.735Z,51.38
2018-03-01T21:43:38.332Z,53.06
2018-03-01T21:46:05.880Z,54.00
2018-03-01T21:48:33.553Z,54.53
2018-03-01T21:51:01.144Z,53.72
2018-03-01T21:53:28.794Z,52.80
2018-03-01T21:55:56.343Z,52.85
2018-03-01T21:58:23.991Z,52.75
2018-03-01T22:00:51.644Z,51.15
2018-03-01T22:03:20.029Z,49.72
2018-03-01T22:05:48.425Z,49.03
2018-03-01T22:08:16.486Z,48.78
2018-03-01T22:10:44.545Z,49.31
2018-03-01T22:13:12.227Z,48.38
2018-03-01T22:15:40.416Z,49.32
2018-03-01T22:18:08.345Z,49.46
2018-03-01T22:20:36.999Z,48.67
2018-03-01T22:23:04.595Z,48.00
2018-03-01T22:25:32.181Z,47.32
2018-03-01T22:27:59.743Z,46.74
2018-03-01T22:30:28.370Z,47.17
2018-03-01T22:32:58.010Z,47.55
2018-03-01T22:35:25.851Z,48.57
2018-03-01T22:37:53.502Z,49.08
2018-03-01T22:40:21.605Z,48.79
2018-03-01T22:42:49.195Z,50.10
2018-03-01T22:45:16.780Z,50.46
2018-03-01T22:47:44.451Z,49.20
2018-03-01T22:50:12.003Z,48.19
2018-03-01T22:52:39.596Z,47.53
2018-03-01T22:55:07.188Z,46.91
2018-03-01T22:57:34.767Z,46.63
2018-03-01T23:00:02.351Z,46.41
2018-03-01T23:02:29.951Z,46.30
2018-03-01T23:04:57.543Z,45.91
2018-03-01T23:07:25.082Z,46.23
2018-03-01T23:09:52.623Z,45.70
2018-03-01T23:12:20.202Z,46.12
2018-03-01T23:14:48.721Z,49.63
2018-03-01T23:17:16.329Z,51.14
2018-03-01T23:19:43.900Z,51.67
2018-03-01T23:22:11.447Z,53.29
2018-03-01T23:24:39.297Z,55.11
2018-03-01T23:27:06.869Z,55.45
2018-03-01T23:29:34.424Z,54.84
2018-03-01T23:32:02.016Z,55.18
2018-03-01T23:34:29.620Z,56.23
2018-03-01T23:36:57.216Z,56.98
2018-03-01T23:39:24.816Z,58.54
2018-03-01T23:41:52.410Z,59.78
2018-03-01T23:44:19.954Z,60.21
2018-03-01T23:46:47.983Z,59.97
2018-03-01T23:49:15.528Z,60.26
2018-03-01T23:51:43.077Z,59.67
2018-03-01T23:54:10.964Z,58.66
2018-03-01T23:56:38.509Z,57.87
2018-03-01T23:59:06.098Z,57.44
